Time;durP1;ratioP1;P1;durP2;ratioP2;P2;SDS_P1;SDS_P2;PMS_P1;PMS_P2;Temp;Humidity;BMP_temperature;BMP_pressure;BME280_temperature;BME280_humidity;BME280_pressure;Samples;Min_cycle;Max_cycle;Signal;HPM_P1;HPM_P2
2021/10/12 00:02:02;;;;;;;40.73;23.90;;;;;;;5.29;71.51;100471.52;2072701;85;28678;-62
2021/10/12 00:05:09;;;;;;;38.25;23.50;;;;;;;5.37;71.62;100475.75;2039186;85;31111;-63
2021/10/12 00:08:14;;;;;;;36.17;22.02;;;;;;;5.45;71.92;100473.79;2067118;84;32987;-62
2021/10/12 00:11:20;;;;;;;32.08;21.20;;;;;;;5.56;72.18;100474.81;2050138;85;28938;-60
2021/10/12 00:14:26;;;;;;;32.65;20.52;;;;;;;5.68;72.55;100467.87;2059695;85;27773;-62
2021/10/12 00:17:28;;;;;;;33.35;20.62;;;;;;;5.80;72.66;100465.31;2095138;83;29339;-61
2021/10/12 00:20:33;;;;;;;33.70;19.73;;;;;;;5.96;73.05;100464.45;2099823;83;31065;-61
2021/10/12 00:23:40;;;;;;;41.23;21.12;;;;;;;6.15;73.31;100435.56;2104596;83;33019;-62
2021/10/12 00:26:43;;;;;;;34.60;19.62;;;;;;;6.15;73.31;100435.56;2090034;83;30315;-62
2021/10/12 00:29:49;;;;;;;32.55;20.23;;;;;;;6.41;73.47;100452.56;2100671;83;27747;-61
2021/10/12 00:32:53;;;;;;;36.42;20.70;;;;;;;6.57;73.51;100449.44;2085792;83;29372;-61
2021/10/12 00:35:58;;;;;;;32.93;19.42;;;;;;;6.73;73.58;100454.70;2099944;83;31125;-61
2021/10/12 00:39:02;;;;;;;38.17;20.25;;;;;;;6.88;73.64;100444.48;2073050;84;32993;-61
2021/10/12 00:42:05;;;;;;;32.80;19.10;;;;;;;7.03;73.64;100440.45;2067268;85;31471;-61
2021/10/12 00:45:13;;;;;;;35.30;20.72;;;;;;;7.14;73.70;100437.83;2069397;84;27861;-64
2021/10/12 00:48:15;;;;;;;34.27;19.45;;;;;;;7.28;73.71;100444.52;2151453;80;28675;-61
2021/10/12 00:51:18;;;;;;;30.72;18.67;;;;;;;7.41;73.67;100435.62;2179318;80;31729;-61
2021/10/12 00:54:24;;;;;;;35.25;19.57;;;;;;;7.52;73.68;100439.25;2167509;80;35117;-61
2021/10/12 00:57:29;;;;;;;33.60;20.77;;;;;;;7.64;73.78;100437.48;2162898;80;29388;-61
2021/10/12 01:00:35;;;;;;;32.23;19.82;;;;;;;7.75;73.74;100437.09;2109499;82;27549;-66
2021/10/12 01:03:41;;;;;;;35.40;19.37;;;;;;;7.86;73.77;100434.91;2149752;81;29436;-61
2021/10/12 01:06:45;;;;;;;30.35;19.30;;;;;;;7.97;73.71;100438.52;2109427;82;31046;-61
2021/10/12 01:09:49;;;;;;;33.20;19.75;;;;;;;8.06;73.74;100428.86;2150815;82;32988;-62
2021/10/12 01:12:53;;;;;;;32.08;20.10;;;;;;;8.17;73.73;100439.59;2168853;80;29404;-61
2021/10/12 01:15:55;;;;;;;30.77;18.32;;;;;;;8.25;73.79;100428.62;2158977;80;27710;-61
2021/10/12 01:19:04;;;;;;;31.23;19.73;;;;;;;8.35;73.72;100423.36;2151671;82;28701;-64
2021/10/12 01:22:11;;;;;;;33.80;20.12;;;;;;;8.43;73.65;100425.25;2140013;81;31061;-62
2021/10/12 01:25:16;;;;;;;31.95;19.55;;;;;;;8.51;73.68;100424.53;2128785;81;32981;-65
2021/10/12 01:28:20;;;;;;;31.62;18.42;;;;;;;8.60;73.59;100420.64;2071720;84;29475;-65
2021/10/12 01:31:29;;;;;;;34.40;18.98;;;;;;;8.68;73.54;100418.11;2144625;81;27809;-65
2021/10/12 01:34:35;;;;;;;35.55;18.92;;;;;;;8.75;73.45;100415.12;2147066;81;29372;-66
2021/10/12 01:37:37;;;;;;;31.30;19.48;;;;;;;8.82;73.41;100413.08;2154440;81;31081;-63
2021/10/12 01:40:40;;;;;;;38.00;21.05;;;;;;;8.87;73.36;100398.19;2160010;81;33697;-61
2021/10/12 01:43:43;;;;;;;35.50;21.95;;;;;;;8.91;73.29;100399.36;2151345;81;29383;-63
2021/10/12 01:46:45;;;;;;;40.10;21.93;;;;;;;8.93;73.17;100404.62;2115626;82;27738;-64
2021/10/12 01:49:48;;;;;;;31.37;18.80;;;;;;;8.94;73.11;100399.20;2143501;81;28766;-61
2021/10/12 01:52:52;;;;;;;33.42;19.20;;;;;;;8.95;72.97;100396.94;2098959;82;31030;-65
2021/10/12 01:55:57;;;;;;;34.20;19.50;;;;;;;8.96;72.99;100394.67;2145276;81;33110;-62
2021/10/12 01:59:00;;;;;;;31.25;19.85;;;;;;;9.03;73.09;100395.77;2153716;81;29351;-61
2021/10/12 02:02:05;;;;;;;31.07;20.12;;;;;;;9.07;73.05;100393.37;2113320;82;27702;-61
2021/10/12 02:05:10;;;;;;;38.03;20.43;;;;;;;9.11;73.08;100382.48;2059599;85;28697;-62
2021/10/12 02:08:16;;;;;;;35.73;21.30;;;;;;;9.17;72.98;100385.36;2078235;83;31062;-62
2021/10/12 02:11:22;;;;;;;37.78;21.02;;;;;;;9.19;72.95;100382.61;2078071;84;33806;-64
2021/10/12 02:14:24;;;;;;;33.40;20.05;;;;;;;9.20;72.90;100381.23;2068678;85;29353;-63
2021/10/12 02:17:29;;;;;;;32.85;19.25;;;;;;;9.20;72.88;100381.67;2041875;85;27615;-61
2021/10/12 02:20:32;;;;;;;28.17;18.60;;;;;;;9.19;72.87;100378.60;2112322;80;28808;-61
2021/10/12 02:23:38;;;;;;;31.40;18.65;;;;;;;9.18;72.90;100373.73;2166635;80;31127;-62
2021/10/12 02:26:41;;;;;;;28.20;19.05;;;;;;;9.18;72.94;100367.05;2171969;80;32960;-61
2021/10/12 02:29:46;;;;;;;27.52;17.77;;;;;;;9.19;72.91;100364.78;2169376;80;29582;-61
2021/10/12 02:32:52;;;;;;;31.15;18.85;;;;;;;9.17;73.03;100360.45;2133295;81;27740;-62
2021/10/12 02:35:58;;;;;;;26.52;17.42;;;;;;;9.16;73.07;100369.41;2127592;81;28775;-64
2021/10/12 02:39:00;;;;;;;26.95;16.32;;;;;;;9.17;73.12;100369.80;2134359;81;31027;-64
2021/10/12 02:42:07;;;;;;;25.43;16.80;;;;;;;9.19;73.28;100363.90;2140186;82;33005;-62
2021/10/12 02:45:11;;;;;;;28.05;16.30;;;;;;;9.21;73.38;100362.03;2148930;81;29391;-64
2021/10/12 02:48:14;;;;;;;25.75;16.35;;;;;;;9.20;73.36;100353.61;2151118;81;36672;-63
2021/10/12 02:51:20;;;;;;;25.57;15.60;;;;;;;9.21;73.50;100358.02;2154824;81;29532;-66
2021/10/12 02:54:26;;;;;;;25.08;15.68;;;;;;;9.23;73.42;100357.05;2103889;82;31075;-66
2021/10/12 02:57:35;;;;;;;27.25;15.90;;;;;;;9.25;73.48;100354.30;2088422;83;29752;-62
2021/10/12 03:00:40;;;;;;;21.35;14.87;;;;;;;9.27;73.61;100351.09;2120950;81;29413;-62
2021/10/12 03:03:46;;;;;;;23.15;13.38;;;;;;;9.28;73.63;100344.33;2152739;81;27814;-64
2021/10/12 03:06:52;;;;;;;21.30;13.85;;;;;;;9.32;73.60;100345.08;2104487;83;29808;-62
2021/10/12 03:09:58;;;;;;;17.00;11.83;;;;;;;9.38;73.63;100346.61;2093673;82;31904;-62
2021/10/12 03:13:01;;;;;;;23.47;12.75;;;;;;;9.43;73.61;100344.13;2134943;82;32979;-62
2021/10/12 03:16:09;;;;;;;19.65;12.05;;;;;;;9.48;73.55;100338.58;2116423;82;29353;-64
2021/10/12 03:19:12;;;;;;;16.90;12.10;;;;;;;9.53;73.52;100337.02;2078902;83;27730;-66
2021/10/12 03:22:17;;;;;;;22.22;11.88;;;;;;;9.56;73.46;100333.77;2102992;82;29155;-62
2021/10/12 03:25:23;;;;;;;19.40;11.83;;;;;;;9.61;73.50;100332.22;2106053;83;31083;-63
2021/10/12 03:28:27;;;;;;;20.17;11.97;;;;;;;9.64;73.48;100333.88;2104489;81;33018;-64
2021/10/12 03:31:31;;;;;;;19.45;12.55;;;;;;;9.66;73.44;100330.21;2127347;81;29353;-61
2021/10/12 03:34:36;;;;;;;19.30;10.88;;;;;;;9.70;73.39;100328.25;2152465;81;27738;-61
2021/10/12 03:37:41;;;;;;;;;;;;;;;9.71;73.43;100329.51;2149072;81;28704;-61
2021/10/12 03:40:47;;;;;;;14.43;9.83;;;;;;;9.73;73.30;100334.81;2149601;81;31729;-62
2021/10/12 03:43:50;;;;;;;15.50;9.95;;;;;;;9.73;73.29;100329.45;2156120;81;33003;-61
2021/10/12 03:46:56;;;;;;;14.00;8.83;;;;;;;9.76;73.26;100327.09;2101890;83;29425;-61
2021/10/12 03:50:02;;;;;;;15.05;9.65;;;;;;;9.74;73.12;100325.84;2099741;83;27762;-61
2021/10/12 03:53:04;;;;;;;17.05;8.78;;;;;;;9.75;73.11;100322.23;2104203;83;28713;-63
2021/10/12 03:56:11;;;;;;;21.75;9.35;;;;;;;9.72;72.92;100314.34;2129473;81;30537;-60
2021/10/12 03:59:14;;;;;;;15.30;8.65;;;;;;;9.69;72.87;100319.83;2109033;82;32909;-64
2021/10/12 04:02:20;;;;;;;15.28;8.30;;;;;;;9.65;72.83;100316.44;2152080;81;29422;-62
2021/10/12 04:05:25;;;;;;;19.17;7.87;;;;;;;9.65;72.87;100312.42;2143616;81;27715;-64
2021/10/12 04:08:27;;;;;;;12.28;7.92;;;;;;;9.63;72.77;100314.75;2150538;81;29469;-64
2021/10/12 04:11:31;;;;;;;15.98;7.72;;;;;;;9.63;72.85;100318.76;2136324;81;30292;-64
2021/10/12 04:14:35;;;;;;;11.83;7.03;;;;;;;9.63;72.82;100315.63;2142911;82;32980;-64
2021/10/12 04:17:39;;;;;;;14.00;7.75;;;;;;;9.62;72.77;100313.89;2141127;81;29419;-61
2021/10/12 04:20:42;;;;;;;22.75;11.10;;;;;;;9.62;72.77;100308.99;2144985;81;27659;-63
2021/10/12 04:23:47;;;;;;;16.93;8.28;;;;;;;9.62;72.76;100304.98;2109677;82;29487;-61
2021/10/12 04:26:55;;;;;;;13.28;7.47;;;;;;;9.63;72.82;100302.70;2136453;81;32500;-63
2021/10/12 04:29:58;;;;;;;15.23;7.87;;;;;;;9.58;72.68;100298.46;2110655;82;34121;-61
2021/10/12 04:33:04;;;;;;;15.75;8.55;;;;;;;9.55;72.62;100294.59;2138681;81;29369;-62
2021/10/12 04:39:13;;;;;;;;;;;;;;;9.51;72.65;100296.14;2101153;83;28744;-61
2021/10/12 04:42:18;;;;;;;13.20;9.15;;;;;;;9.47;72.68;100288.70;2129923;82;32329;-62
2021/10/12 04:45:24;;;;;;;13.80;8.75;;;;;;;9.43;72.66;100288.47;2122156;81;33066;-62
2021/10/12 04:48:30;;;;;;;17.75;9.33;;;;;;;9.41;72.61;100291.67;2167997;80;29339;-65
2021/10/12 04:51:37;;;;;;;15.93;8.58;;;;;;;9.37;72.59;100296.75;2165841;80;28244;-62
2021/10/12 04:54:43;;;;;;;17.40;8.93;;;;;;;9.32;72.60;100291.61;2149952;81;28658;-61
2021/10/12 04:57:47;;;;;;;16.45;8.35;;;;;;;9.26;72.59;100291.87;2111505;81;31795;-61
2021/10/12 05:00:52;;;;;;;13.93;8.93;;;;;;;9.21;72.56;100287.19;2123567;82;33268;-61
2021/10/12 05:03:58;;;;;;;18.75;9.03;;;;;;;9.16;72.53;100286.55;2132336;81;30200;-61
2021/10/12 05:07:03;;;;;;;17.48;7.60;;;;;;;9.11;72.56;100284.05;2100982;82;27902;-61
2021/10/12 05:10:10;;;;;;;11.43;7.10;;;;;;;9.09;72.58;100276.59;2125445;82;28682;-61
2021/10/12 05:13:15;;;;;;;14.23;8.18;;;;;;;9.07;72.66;100279.31;2142230;81;31909;-61
2021/10/12 05:16:21;;;;;;;14.25;6.83;;;;;;;9.03;72.64;100273.70;2160866;81;32982;-61
2021/10/12 05:19:27;;;;;;;12.10;7.12;;;;;;;9.03;72.65;100286.20;2125872;81;29530;-60
2021/10/12 05:22:32;;;;;;;16.73;7.40;;;;;;;8.99;72.62;100275.24;2144823;81;27637;-61
2021/10/12 05:25:34;;;;;;;8.23;5.28;;;;;;;8.97;72.63;100273.98;2138314;81;29476;-60
2021/10/12 05:28:37;;;;;;;17.70;7.60;;;;;;;8.97;72.65;100276.17;2126633;81;31464;-61
2021/10/12 05:31:43;;;;;;;16.05;8.05;;;;;;;8.96;72.66;100277.11;2134547;81;34167;-60
2021/10/12 05:34:49;;;;;;;13.15;7.70;;;;;;;8.95;72.69;100286.06;2158919;81;30171;-60
2021/10/12 05:37:55;;;;;;;25.97;8.10;;;;;;;8.93;72.62;100291.97;2145237;81;27752;-60
2021/10/12 05:40:58;;;;;;;16.37;8.40;;;;;;;8.97;72.72;100288.69;2134190;81;29538;-61
2021/10/12 05:44:04;;;;;;;18.80;7.87;;;;;;;9.02;72.81;100296.01;2136016;81;31701;-60
2021/10/12 05:47:07;;;;;;;18.20;7.70;;;;;;;9.06;72.77;100296.28;2136744;82;33156;-60
2021/10/12 05:50:13;;;;;;;16.77;8.48;;;;;;;9.09;72.75;100289.96;2126538;82;29890;-61
2021/10/12 05:53:26;;;;;;;22.27;8.78;;;;;;;9.13;72.74;100288.86;2132978;82;27819;-61
2021/10/12 05:56:46;;;;;;;16.87;8.88;;;;;;;9.19;72.74;100293.07;2133177;82;29759;-60
2021/10/12 05:59:47;;;;;;;19.37;8.30;;;;;;;9.26;72.75;100283.41;2144073;81;30945;-60
2021/10/12 06:02:50;;;;;;;18.37;9.20;;;;;;;9.34;72.75;100275.49;2105581;82;33612;-61
2021/10/12 06:05:56;;;;;;;22.87;9.33;;;;;;;9.41;72.68;100278.30;2138033;81;29349;-61
2021/10/12 06:09:01;;;;;;;19.00;9.10;;;;;;;9.44;72.49;100275.46;2142407;81;28232;-61
2021/10/12 06:12:06;;;;;;;;;;;;;;;9.47;72.44;100275.81;2161746;81;28699;-61
2021/10/12 06:15:12;;;;;;;19.00;9.73;;;;;;;9.53;72.45;100277.73;2147972;81;31037;-61
2021/10/12 06:18:19;;;;;;;16.50;9.13;;;;;;;9.63;72.33;100279.52;2143129;81;32983;-61
2021/10/12 06:21:24;;;;;;;18.95;9.58;;;;;;;9.76;72.29;100279.83;2157144;81;29349;-62
2021/10/12 06:24:30;;;;;;;15.43;9.45;;;;;;;9.90;72.31;100280.50;2105157;82;27772;-61
2021/10/12 06:27:37;;;;;;;24.80;10.58;;;;;;;10.03;72.18;100278.12;2112045;82;29652;-60
2021/10/12 06:30:44;;;;;;;23.90;9.60;;;;;;;10.12;72.11;100283.02;2131821;81;31038;-61
2021/10/12 06:33:50;;;;;;;19.85;10.60;;;;;;;10.17;71.94;100278.80;2123378;82;33016;-62
2021/10/12 06:36:56;;;;;;;16.60;9.43;;;;;;;10.21;71.83;100278.17;2102813;82;29431;-61
2021/10/12 06:40:00;;;;;;;17.35;8.83;;;;;;;10.24;71.69;100271.34;2132497;82;27817;-61
2021/10/12 06:43:03;;;;;;;15.48;8.18;;;;;;;10.29;71.72;100265.27;2164861;81;28511;-61
2021/10/12 06:46:06;;;;;;;15.93;7.62;;;;;;;10.34;71.70;100262.75;2154587;81;31672;-61
2021/10/12 06:49:12;;;;;;;18.37;7.60;;;;;;;10.45;71.69;100266.76;2108125;83;32999;-61
2021/10/12 06:52:20;;;;;;;16.62;7.12;;;;;;;10.49;71.37;100263.84;2092748;83;29362;-61
2021/10/12 06:55:23;;;;;;;18.17;7.67;;;;;;;10.57;71.26;100270.16;2144740;80;27717;-61
2021/10/12 06:58:29;;;;;;;14.68;7.25;;;;;;;10.57;70.98;100267.97;2155382;81;29445;-61
2021/10/12 07:01:33;;;;;;;16.67;7.42;;;;;;;10.59;71.10;100270.95;2162618;80;30603;-61
2021/10/12 07:04:39;;;;;;;20.32;7.65;;;;;;;10.68;71.08;100264.27;2178575;81;33771;-61
2021/10/12 07:07:45;;;;;;;16.12;6.55;;;;;;;10.77;70.99;100269.62;2166923;80;31189;-62
2021/10/12 07:10:50;;;;;;;11.80;7.33;;;;;;;10.86;70.80;100274.98;2157148;81;27861;-61
2021/10/12 07:13:53;;;;;;;18.23;6.33;;;;;;;11.05;71.05;100265.51;2149118;81;29547;-63
2021/10/12 07:16:58;;;;;;;17.60;6.33;;;;;;;11.28;70.67;100271.00;2153964;81;30503;-62
2021/10/12 07:20:04;;;;;;;15.63;6.33;;;;;;;11.55;70.63;100256.58;2116952;81;34125;-62
2021/10/12 07:23:09;;;;;;;14.10;5.53;;;;;;;12.03;70.23;100260.30;2122245;81;30424;-62
2021/10/12 07:26:14;;;;;;;18.82;5.87;;;;;;;12.65;69.73;100249.57;2141741;81;27716;-61
2021/10/12 07:29:15;;;;;;;13.60;5.10;;;;;;;13.24;69.15;100258.63;2146303;81;28661;-62
2021/10/12 07:32:22;;;;;;;12.70;4.90;;;;;;;13.54;68.40;100257.22;2067147;84;31495;-61
2021/10/12 07:35:24;;;;;;;16.50;4.92;;;;;;;13.62;67.30;100252.69;2176618;81;32973;-62
2021/10/12 07:38:28;;;;;;;10.03;4.33;;;;;;;13.67;66.90;100250.59;2163784;80;29739;-62
2021/10/12 07:41:31;;;;;;;9.60;4.37;;;;;;;13.63;66.25;100245.88;2168920;80;27671;-62
2021/10/12 07:44:37;;;;;;;10.98;4.25;;;;;;;13.50;66.14;100243.09;2154113;81;29256;-62
2021/10/12 07:47:43;;;;;;;11.12;5.45;;;;;;;13.48;65.84;100245.02;2118487;81;31670;-62
2021/10/12 07:50:47;;;;;;;16.85;5.58;;;;;;;13.52;65.91;100248.37;2167506;80;32967;-62
2021/10/12 07:53:51;;;;;;;11.68;4.85;;;;;;;13.61;65.68;100250.50;2168907;80;29367;-62
2021/10/12 07:56:55;;;;;;;16.05;5.22;;;;;;;13.68;65.56;100248.28;2172363;80;27854;-62
2021/10/12 07:59:58;;;;;;;12.90;4.72;;;;;;;13.75;64.72;100242.87;2120481;81;28668;-60
2021/10/12 08:03:05;;;;;;;11.68;4.45;;;;;;;13.81;65.23;100248.37;2155840;81;31057;-59
2021/10/12 08:06:10;;;;;;;14.78;4.85;;;;;;;13.78;64.84;100245.37;2145120;81;33782;-62
2021/10/12 08:09:13;;;;;;;11.83;4.25;;;;;;;13.67;64.28;100239.32;2077848;82;29534;-61
2021/10/12 08:12:15;;;;;;;11.53;4.72;;;;;;;13.56;64.34;100229.73;2113661;83;27964;-62
2021/10/12 08:15:20;;;;;;;9.88;4.67;;;;;;;13.53;64.36;100227.22;2106343;83;28840;-62
2021/10/12 08:18:26;;;;;;;10.23;4.10;;;;;;;13.51;64.48;100230.02;2126776;81;31059;-61
2021/10/12 08:21:30;;;;;;;12.70;4.87;;;;;;;13.51;63.99;100223.30;2138205;81;33020;-62
2021/10/12 08:24:33;;;;;;;11.83;4.80;;;;;;;13.49;63.75;100217.61;2149916;81;29438;-62
2021/10/12 08:27:36;;;;;;;17.50;8.20;;;;;;;13.42;63.78;100218.97;2147846;81;27634;-62
2021/10/12 08:30:39;;;;;;;12.25;5.45;;;;;;;13.40;64.00;100218.17;2141324;82;28693;-61
2021/10/12 08:33:43;;;;;;;13.72;4.65;;;;;;;13.48;64.06;100210.03;2145892;81;31517;-61
2021/10/12 08:36:49;;;;;;;11.28;4.70;;;;;;;13.61;63.62;100201.16;2142825;82;32997;-61
2021/10/12 08:39:54;;;;;;;12.13;4.37;;;;;;;13.70;63.62;100198.36;2137718;81;29442;-61
2021/10/12 08:43:00;;;;;;;15.03;5.47;;;;;;;13.81;63.29;100197.20;2141560;82;27725;-61
2021/10/12 08:46:06;;;;;;;7.72;3.92;;;;;;;13.88;63.01;100194.98;2128499;81;28661;-60
2021/10/12 08:49:12;;;;;;;17.77;4.40;;;;;;;14.02;63.21;100190.89;2128212;81;31818;-60
2021/10/12 08:52:20;;;;;;;10.28;3.58;;;;;;;14.13;62.42;100190.19;2121868;81;33978;-60
2021/10/12 08:55:23;;;;;;;11.40;4.67;;;;;;;14.18;62.24;100178.59;2134017;81;29375;-61
2021/10/12 08:58:26;;;;;;;11.65;4.00;;;;;;;14.27;61.97;100174.42;2133496;81;27758;-60
2021/10/12 09:01:32;;;;;;;12.20;3.55;;;;;;;14.41;61.71;100163.56;2154866;81;28718;-61
2021/10/12 09:04:42;;;;;;;8.60;3.25;;;;;;;14.39;60.52;100166.88;2109703;82;31043;-61
2021/10/12 09:07:48;;;;;;;8.95;3.40;;;;;;;14.36;60.62;100164.85;2146764;81;33058;-61
2021/10/12 09:10:54;;;;;;;5.37;3.45;;;;;;;14.35;60.70;100156.39;2120786;81;30055;-64
2021/10/12 09:14:04;;;;;;;16.07;4.42;;;;;;;14.44;60.33;100157.98;2129122;81;27873;-62
2021/10/12 09:17:10;;;;;;;7.00;3.83;;;;;;;14.54;60.40;100152.82;2106734;83;28770;-64
2021/10/12 09:20:17;;;;;;;7.65;3.90;;;;;;;14.57;59.54;100147.69;2106883;82;31042;-61
2021/10/12 09:23:22;;;;;;;8.75;4.42;;;;;;;14.54;59.49;100139.34;2071220;83;33012;-62
2021/10/12 09:26:32;;;;;;;12.93;3.83;;;;;;;14.67;59.47;100139.83;2108125;82;29351;-62
2021/10/12 09:29:38;;;;;;;11.30;3.77;;;;;;;14.86;59.12;100123.28;2152833;81;27742;-63
2021/10/12 09:32:42;;;;;;;10.72;3.95;;;;;;;15.08;59.54;100121.73;2140029;81;29496;-62
2021/10/12 09:35:47;;;;;;;9.90;3.70;;;;;;;15.28;58.72;100123.86;2147492;81;31863;-62
2021/10/12 09:38:52;;;;;;;8.38;3.60;;;;;;;15.44;58.74;100124.98;2107738;81;32972;-62
2021/10/12 09:42:09;;;;;;;11.68;3.65;;;;;;;15.50;58.21;100112.36;2141340;81;29738;-62
2021/10/12 09:45:14;;;;;;;19.07;3.75;;;;;;;15.52;57.68;100109.56;2150298;81;27704;-63
2021/10/12 09:48:38;;;;;;;13.38;3.52;;;;;;;15.47;57.80;100100.43;2096942;81;28660;-61
2021/10/12 09:52:16;;;;;;;9.25;3.40;;;;;;;15.38;57.29;100093.02;2150361;81;31048;-61
2021/10/12 09:55:20;;;;;;;11.63;3.50;;;;;;;15.33;57.55;100096.53;2157236;81;34286;-61
2021/10/12 09:58:22;;;;;;;10.72;2.95;;;;;;;15.27;57.34;100086.20;2112859;81;29352;-62
2021/10/12 10:01:28;;;;;;;12.07;3.58;;;;;;;15.19;57.16;100093.52;2149433;81;27879;-62
2021/10/12 10:04:32;;;;;;;9.95;3.83;;;;;;;15.04;57.68;100080.63;2120618;82;29893;-62
2021/10/12 10:07:46;;;;;;;9.38;3.42;;;;;;;14.94;58.03;100078.23;2131841;82;34772;-62
2021/10/12 10:10:49;;;;;;;11.65;4.62;;;;;;;14.92;58.23;100064.83;2093929;82;32990;-61
2021/10/12 10:13:52;;;;;;;13.15;3.60;;;;;;;15.07;58.60;100061.52;2124567;82;28877;-62
2021/10/12 10:16:58;;;;;;;8.25;2.90;;;;;;;15.23;58.54;100061.76;2115959;83;27760;-63
2021/10/12 10:20:07;;;;;;;10.18;3.08;;;;;;;15.40;58.75;100046.53;2139344;82;28708;-62
2021/10/12 10:23:11;;;;;;;11.45;3.15;;;;;;;15.59;57.86;100042.47;2116223;82;31047;-63
2021/10/12 10:26:28;;;;;;;12.20;4.30;;;;;;;15.63;57.86;100039.41;2124976;82;33002;-61
2021/10/12 10:29:38;;;;;;;8.33;3.08;;;;;;;15.46;57.33;100035.30;2051496;85;28992;-63
2021/10/12 10:32:51;;;;;;;7.83;2.65;;;;;;;15.39;57.63;100035.36;2061072;85;28095;-61
2021/10/12 10:35:58;;;;;;;5.30;2.90;;;;;;;15.41;57.74;100037.94;2068957;85;28676;-62
2021/10/12 10:39:03;;;;;;;6.28;2.12;;;;;;;15.49;57.56;100028.79;2054938;85;31101;-61
2021/10/12 10:42:09;;;;;;;7.80;2.30;;;;;;;15.55;56.85;100025.64;2083513;83;33129;-62
2021/10/12 10:45:15;;;;;;;6.17;2.50;;;;;;;15.54;57.15;100024.39;2077148;83;29387;-61
2021/10/12 10:48:22;;;;;;;9.85;2.37;;;;;;;15.59;57.14;100020.36;2055594;84;27735;-62
2021/10/12 10:51:28;;;;;;;8.55;2.67;;;;;;;15.60;57.16;100019.89;2081782;84;28766;-61
2021/10/12 10:54:44;;;;;;;8.03;2.42;;;;;;;15.53;57.02;100015.91;2024402;85;31910;-61
2021/10/12 10:58:17;;;;;;;7.78;2.60;;;;;;;15.42;57.62;100015.36;2063507;85;32996;-62
2021/10/12 11:01:39;;;;;;;6.55;3.10;;;;;;;15.21;57.82;100013.31;2069268;84;29771;-62
2021/10/12 11:04:49;;;;;;;19.23;11.15;;;;;;;15.00;58.22;100017.07;2048535;82;27786;-62
2021/10/12 11:08:14;;;;;;;32.00;21.62;;;;;;;14.76;58.72;100009.80;2146894;81;28712;-62
2021/10/12 11:11:16;;;;;;;8.37;3.43;;;;;;;14.56;59.25;100004.47;2147367;81;32545;-62
2021/10/12 11:14:24;;;;;;;13.55;4.58;;;;;;;14.41;59.73;99999.66;2145368;81;34219;-64
2021/10/12 11:17:31;;;;;;;13.22;5.10;;;;;;;14.26;59.99;99998.90;2132985;82;29719;-66
2021/10/12 11:20:43;;;;;;;10.78;5.08;;;;;;;14.18;60.53;99997.24;2147976;82;27831;-63
2021/10/12 11:24:01;;;;;;;12.63;5.78;;;;;;;14.13;61.01;99986.80;2060817;84;28694;-64
2021/10/12 11:27:07;;;;;;;14.00;6.42;;;;;;;14.17;61.50;99985.59;2067520;84;32281;-63
2021/10/12 11:30:15;;;;;;;14.78;8.68;;;;;;;14.23;61.72;99973.55;2077133;84;33807;-66
2021/10/12 11:33:35;;;;;;;16.73;5.55;;;;;;;14.28;62.21;99968.20;2079970;84;29676;-62
2021/10/12 11:36:41;;;;;;;14.75;6.40;;;;;;;14.30;62.07;99963.19;2084575;84;28348;-63
2021/10/12 11:39:44;;;;;;;15.35;9.38;;;;;;;14.22;62.08;99954.30;2084975;83;28719;-64
2021/10/12 11:42:52;;;;;;;20.17;9.13;;;;;;;14.10;61.84;99955.52;2085773;84;31089;-63
2021/10/12 11:46:03;;;;;;;13.65;6.83;;;;;;;14.04;62.15;99949.70;2021283;85;32934;-63
2021/10/12 11:49:12;;;;;;;12.30;4.95;;;;;;;13.95;62.54;99957.94;2070574;84;30395;-65
2021/10/12 11:52:18;;;;;;;15.63;5.15;;;;;;;13.77;62.54;99987.01;2086096;84;27837;-63
2021/10/12 11:55:29;;;;;;;7.25;2.87;;;;;;;13.42;62.40;99995.13;2077792;84;29564;-65
2021/10/12 11:58:32;;;;;;;6.25;2.08;;;;;;;13.16;62.63;99995.01;2074530;84;31038;-65
2021/10/12 12:01:45;;;;;;;6.62;3.70;;;;;;;12.83;62.39;99986.82;2122909;81;33393;-63
2021/10/12 12:04:50;;;;;;;13.53;7.87;;;;;;;12.56;62.54;99981.38;2136170;82;29364;-62
2021/10/12 12:07:56;;;;;;;7.12;3.05;;;;;;;12.24;62.86;99981.56;2100984;81;27787;-67
2021/10/12 12:10:58;;;;;;;;;;;;;;;12.06;63.30;99979.55;2133388;81;28694;-68
2021/10/12 12:14:05;;;;;;;6.65;2.58;;;;;;;11.86;63.98;99973.53;2151774;81;31411;-71
2021/10/12 12:17:18;;;;;;;8.15;2.60;;;;;;;11.69;64.00;99971.84;2115880;82;33008;-67
2021/10/12 12:20:25;;;;;;;5.80;2.75;;;;;;;11.51;64.11;99973.31;2129067;81;29385;-64
2021/10/12 12:23:47;;;;;;;9.18;5.97;;;;;;;11.38;64.56;99958.91;2121322;81;27919;-64
2021/10/12 12:27:05;;;;;;;30.15;16.32;;;;;;;11.37;64.97;99959.40;2134676;81;28696;-64
2021/10/12 12:30:12;;;;;;;11.50;7.42;;;;;;;11.48;65.37;99953.41;2104122;83;32271;-63
2021/10/12 12:33:14;;;;;;;5.08;2.98;;;;;;;11.57;65.84;99947.98;2126178;82;32940;-64
2021/10/12 12:36:21;;;;;;;4.40;3.12;;;;;;;11.61;65.70;99944.12;2124897;82;30473;-64
2021/10/12 12:39:43;;;;;;;5.33;3.08;;;;;;;11.67;65.93;99947.80;2144281;81;27701;-64
2021/10/12 12:42:49;;;;;;;9.00;2.45;;;;;;;11.69;65.98;99947.70;2145022;82;28696;-63
2021/10/12 12:46:14;;;;;;;8.03;3.55;;;;;;;11.75;66.29;99941.97;2127749;82;31055;-67
2021/10/12 12:49:18;;;;;;;5.37;3.52;;;;;;;11.85;66.40;99940.94;2140965;81;32454;-64
2021/10/12 12:52:26;;;;;;;5.40;3.05;;;;;;;11.96;66.49;99939.79;2089126;83;29307;-63
2021/10/12 12:55:41;;;;;;;5.97;3.17;;;;;;;12.04;66.57;99935.81;2112001;81;28341;-64
2021/10/12 12:58:45;;;;;;;6.70;2.77;;;;;;;12.04;66.66;99942.03;2152453;81;28752;-62
2021/10/12 13:01:51;;;;;;;5.83;3.13;;;;;;;11.99;66.55;99949.53;2125640;82;31037;-67
2021/10/12 13:04:54;;;;;;;7.00;3.50;;;;;;;11.95;66.68;99939.90;2150436;81;32976;-70
2021/10/12 13:08:01;;;;;;;10.82;3.12;;;;;;;11.94;66.88;99940.85;2143488;81;29351;-67
2021/10/12 13:11:08;;;;;;;7.70;5.40;;;;;;;11.96;67.30;99940.28;2124411;82;27723;-64
2021/10/12 13:14:15;;;;;;;16.00;9.15;;;;;;;12.00;67.30;99948.08;2146921;81;29070;-62
2021/10/12 13:17:21;;;;;;;65.03;38.17;;;;;;;11.97;67.32;99946.04;2148914;81;30444;-62
2021/10/12 13:20:24;;;;;;;75.37;42.00;;;;;;;12.00;67.62;99933.78;2098203;82;32961;-61
2021/10/12 13:23:30;;;;;;;53.55;29.92;;;;;;;11.98;67.39;99939.72;2147761;81;29411;-62
2021/10/12 13:26:35;;;;;;;;;;;;;;;11.97;67.62;99936.64;2155806;81;28001;-62
2021/10/12 13:29:40;;;;;;;43.80;8.07;;;;;;;11.96;67.84;99925.52;2148005;81;28672;-62
2021/10/12 13:32:47;;;;;;;3.67;2.47;;;;;;;11.89;68.28;99942.48;2156975;81;30502;-61
2021/10/12 13:35:49;;;;;;;6.70;2.98;;;;;;;11.51;68.60;99925.52;2118737;81;33538;-62
2021/10/12 13:38:56;;;;;;;5.45;2.70;;;;;;;11.31;68.68;99918.67;2152612;81;29390;-62
2021/10/12 13:42:00;;;;;;;7.45;3.40;;;;;;;11.23;69.04;99928.51;2152755;82;27720;-65
2021/10/12 13:45:12;;;;;;;8.70;4.17;;;;;;;11.16;69.13;99919.96;2117861;81;28742;-63
2021/10/12 13:48:09;;;;;;;7.62;4.65;;;;;;;11.18;69.58;99919.86;2141484;82;31047;-64
2021/10/12 13:51:18;;;;;;;7.00;5.15;;;;;;;11.18;69.77;99912.66;2142337;81;33371;-63
2021/10/12 13:54:24;;;;;;;65.55;24.45;;;;;;;11.21;69.96;99906.28;2157689;81;30266;-65
2021/10/12 13:57:31;;;;;;;115.95;38.30;;;;;;;11.28;69.96;99904.95;2155039;81;27600;-64
2021/10/12 14:00:38;;;;;;;78.97;29.67;;;;;;;11.37;70.19;99904.42;2154841;81;28724;-66
2021/10/12 14:03:43;;;;;;;91.63;35.68;;;;;;;11.42;70.04;99897.44;2093084;82;31291;-63
2021/10/12 14:06:46;;;;;;;;;;;;;;;11.46;70.34;99899.45;2137616;81;33816;-64
2021/10/12 14:09:52;;;;;;;68.20;29.15;;;;;;;11.49;70.21;99896.13;2134736;81;29408;-67
2021/10/12 14:12:59;;;;;;;67.62;27.65;;;;;;;11.51;70.21;99901.38;2064893;83;27671;-65
2021/10/12 14:16:05;;;;;;;31.12;15.90;;;;;;;11.48;70.11;99897.08;2060229;84;28845;-63
2021/10/12 14:19:08;;;;;;;20.02;11.10;;;;;;;11.45;70.07;99899.94;2137993;81;31220;-65
2021/10/12 14:22:14;;;;;;;13.65;8.25;;;;;;;11.39;70.25;99887.77;2100584;83;33005;-62
2021/10/12 14:25:18;;;;;;;12.50;8.38;;;;;;;11.38;70.38;99887.37;2079391;83;30147;-63
2021/10/12 14:28:24;;;;;;;13.48;7.22;;;;;;;11.34;70.45;99891.64;2148195;81;27664;-61